createdAt,value
2018-04-29T00:02:08.100Z,7.47
2018-04-29T00:04:35.517Z,6.73
2018-04-29T00:07:02.928Z,7.00
2018-04-29T00:09:30.331Z,6.33
2018-04-29T00:11:57.757Z,5.87
2018-04-29T00:14:25.148Z,6.60
2018-04-29T00:16:52.574Z,6.50
2018-04-29T00:19:19.970Z,7.13
2018-04-29T00:21:47.368Z,6.50
2018-04-29T00:24:14.780Z,6.00
2018-04-29T00:26:42.177Z,5.87
2018-04-29T00:29:09.592Z,6.03
2018-04-29T00:31:37.004Z,6.00
2018-04-29T00:34:04.416Z,6.37
2018-04-29T00:36:31.817Z,6.90
2018-04-29T00:38:59.216Z,8.17
2018-04-29T00:41:26.631Z,7.83
2018-04-29T00:43:54.033Z,8.73
2018-04-29T00:46:21.450Z,9.10
2018-04-29T00:48:48.856Z,7.90
2018-04-29T00:51:16.537Z,7.13
2018-04-29T00:53:43.935Z,7.40
2018-04-29T00:56:11.333Z,7.07
2018-04-29T00:58:38.744Z,7.50
2018-04-29T01:01:06.153Z,8.07
2018-04-29T01:03:33.569Z,8.00
2018-04-29T01:06:01.029Z,8.23
2018-04-29T01:08:28.379Z,6.80
2018-04-29T01:10:55.800Z,6.77
2018-04-29T01:13:23.205Z,7.17
2018-04-29T01:15:50.626Z,7.33
2018-04-29T01:18:18.045Z,8.20
2018-04-29T01:20:45.468Z,8.47
2018-04-29T01:23:12.923Z,6.70
2018-04-29T01:25:40.299Z,7.13
2018-04-29T01:28:07.675Z,8.03
2018-04-29T01:30:35.076Z,7.20
2018-04-29T01:33:02.491Z,6.17
2018-04-29T01:35:29.888Z,7.23
2018-04-29T01:37:57.289Z,6.67
2018-04-29T01:40:24.706Z,7.03
2018-04-29T01:42:52.116Z,7.10
2018-04-29T01:45:19.511Z,7.77
2018-04-29T01:47:46.944Z,8.47
2018-04-29T01:50:14.349Z,6.63
2018-04-29T01:52:41.755Z,8.00
2018-04-29T01:55:09.167Z,7.60
2018-04-29T01:57:36.580Z,7.33
2018-04-29T02:00:03.976Z,7.53
2018-04-29T02:02:31.397Z,7.93
2018-04-29T02:04:58.793Z,8.93
2018-04-29T02:07:26.212Z,8.33
2018-04-29T02:09:53.608Z,8.43
2018-04-29T02:12:21.024Z,8.20
2018-04-29T02:14:48.432Z,7.90
2018-04-29T02:17:15.846Z,7.70
2018-04-29T02:19:43.239Z,7.43
2018-04-29T02:22:10.664Z,8.27
2018-04-29T02:24:38.065Z,7.87
2018-04-29T02:27:05.775Z,8.53
2018-04-29T02:29:33.167Z,8.20
2018-04-29T02:32:00.569Z,8.30
2018-04-29T02:34:27.986Z,8.40
2018-04-29T02:36:55.385Z,9.20
2018-04-29T02:39:22.793Z,8.50
2018-04-29T02:41:50.201Z,8.63
2018-04-29T02:44:17.614Z,8.33
2018-04-29T02:46:45.026Z,7.87
2018-04-29T02:49:12.435Z,7.83
2018-04-29T02:51:39.861Z,8.90
2018-04-29T02:54:07.280Z,8.93
2018-04-29T02:56:34.684Z,8.77
2018-04-29T02:59:02.093Z,9.57
2018-04-29T03:01:29.699Z,9.47
2018-04-29T03:03:57.092Z,8.20
2018-04-29T03:06:25.072Z,7.90
2018-04-29T03:08:52.498Z,8.10
2018-04-29T03:11:19.914Z,8.27
2018-04-29T03:13:47.335Z,9.63
2018-04-29T03:16:14.752Z,9.77
2018-04-29T03:18:42.543Z,9.93
2018-04-29T03:21:09.960Z,9.30
2018-04-29T03:23:37.365Z,9.30
2018-04-29T03:26:04.784Z,9.33
2018-04-29T03:28:32.215Z,10.10
2018-04-29T03:30:59.659Z,9.60
2018-04-29T03:33:27.077Z,9.80
2018-04-29T03:35:54.830Z,9.33
2018-04-29T03:38:22.236Z,9.83
2018-04-29T03:40:49.645Z,9.00
2018-04-29T03:43:17.065Z,10.10
2018-04-29T03:45:44.484Z,9.93
2018-04-29T03:48:11.912Z,10.27
2018-04-29T03:50:39.324Z,10.67
2018-04-29T03:53:06.736Z,11.23
2018-04-29T03:55:34.157Z,10.37
2018-04-29T03:58:13.441Z,10.87
2018-04-29T04:00:52.592Z,10.30
2018-04-29T04:06:39.466Z,10.73
2018-04-29T04:09:06.875Z,8.57
2018-04-29T04:11:34.302Z,9.07
2018-04-29T04:14:01.715Z,10.00
2018-04-29T04:16:29.130Z,9.37
2018-04-29T04:18:56.543Z,10.37
2018-04-29T04:21:23.960Z,10.10
2018-04-29T04:23:51.383Z,9.40
2018-04-29T04:26:18.805Z,9.60
2018-04-29T04:28:46.232Z,9.70
2018-04-29T04:31:13.636Z,10.67
2018-04-29T04:33:41.051Z,11.20
2018-04-29T04:36:08.455Z,9.67
2018-04-29T04:38:35.869Z,11.00
2018-04-29T04:41:03.293Z,10.23
2018-04-29T04:43:30.713Z,10.10
2018-04-29T04:45:58.192Z,8.43
2018-04-29T04:48:25.528Z,8.37
2018-04-29T04:50:52.942Z,8.43
2018-04-29T04:53:20.335Z,8.80
2018-04-29T04:55:47.751Z,7.90
2018-04-29T04:58:15.162Z,8.23
2018-04-29T05:00:42.561Z,7.17
2018-04-29T05:03:09.976Z,6.67
2018-04-29T05:05:37.369Z,6.57
2018-04-29T05:08:04.776Z,7.40
2018-04-29T05:10:32.179Z,6.90
2018-04-29T05:12:59.584Z,6.67
2018-04-29T05:15:26.984Z,6.70
2018-04-29T05:17:54.489Z,6.80
2018-04-29T05:20:21.884Z,7.07
2018-04-29T05:22:49.298Z,7.60
2018-04-29T05:25:16.708Z,7.35
2018-04-29T05:27:44.111Z,7.30
2018-04-29T05:30:11.516Z,7.90
2018-04-29T05:32:38.932Z,7.35
2018-04-29T05:35:06.350Z,7.45
2018-04-29T05:37:33.760Z,6.25
2018-04-29T05:40:01.180Z,7.18
2018-04-29T05:42:28.572Z,6.90
2018-04-29T05:44:55.992Z,6.62
2018-04-29T05:47:23.384Z,6.47
2018-04-29T05:49:51.093Z,6.32
2018-04-29T05:52:18.460Z,6.55
2018-04-29T05:54:45.859Z,6.30
2018-04-29T05:57:13.629Z,5.50
2018-04-29T05:59:41.032Z,6.22
2018-04-29T06:02:08.432Z,6.60
2018-04-29T06:04:35.859Z,6.40
2018-04-29T06:07:03.248Z,6.87
2018-04-29T06:09:30.659Z,6.10
2018-04-29T06:11:58.068Z,6.47
2018-04-29T06:14:25.483Z,5.80
2018-04-29T06:16:52.887Z,6.00
2018-04-29T06:19:20.299Z,6.30
2018-04-29T06:21:47.691Z,6.22
2018-04-29T06:24:15.398Z,5.87
2018-04-29T06:26:42.799Z,6.12
2018-04-29T06:29:10.204Z,5.40
2018-04-29T06:31:37.622Z,5.78
2018-04-29T06:34:05.038Z,5.62
2018-04-29T06:36:32.436Z,5.80
2018-04-29T06:38:59.849Z,5.45
2018-04-29T06:41:27.279Z,5.60
2018-04-29T06:43:54.703Z,6.25
2018-04-29T06:46:22.115Z,6.10
2018-04-29T06:48:49.523Z,5.55
2018-04-29T06:51:16.932Z,5.68
2018-04-29T06:53:44.348Z,5.90
2018-04-29T06:56:11.739Z,5.40
2018-04-29T06:58:39.204Z,5.57
2018-04-29T07:01:06.936Z,5.70
2018-04-29T07:03:34.341Z,5.47
2018-04-29T07:06:01.741Z,6.18
2018-04-29T07:08:29.151Z,5.43
2018-04-29T07:10:56.556Z,5.10
2018-04-29T07:13:23.964Z,5.00
2018-04-29T07:15:51.364Z,6.10
2018-04-29T07:18:18.779Z,6.00
2018-04-29T07:20:46.200Z,5.40
2018-04-29T07:23:13.671Z,6.03
2018-04-29T07:25:41.074Z,5.87
2018-04-29T07:28:08.488Z,5.90
2018-04-29T07:30:35.892Z,6.35
2018-04-29T07:33:03.297Z,5.60
2018-04-29T07:35:30.711Z,6.28
2018-04-29T07:37:58.104Z,5.05
2018-04-29T07:40:25.520Z,5.43
2018-04-29T07:42:52.915Z,5.80
2018-04-29T07:45:20.327Z,5.43
2018-04-29T07:47:47.733Z,5.60
2018-04-29T07:50:15.156Z,5.47
2018-04-29T07:52:42.602Z,4.97
2018-04-29T07:55:09.957Z,4.90
2018-04-29T07:57:37.719Z,5.60
2018-04-29T08:00:05.111Z,5.78
2018-04-29T08:02:32.508Z,5.37
2018-04-29T08:04:59.919Z,5.45
2018-04-29T08:07:27.329Z,5.75
2018-04-29T08:09:54.719Z,5.82
2018-04-29T08:12:22.136Z,5.43
2018-04-29T08:14:49.528Z,6.43
2018-04-29T08:17:16.944Z,5.05
2018-04-29T08:19:44.343Z,4.80
2018-04-29T08:22:11.760Z,6.07
2018-04-29T08:24:39.167Z,5.80
2018-04-29T08:27:06.579Z,5.18
2018-04-29T08:29:34.197Z,5.60
2018-04-29T08:32:01.598Z,5.90
2018-04-29T08:34:28.999Z,5.63
2018-04-29T08:36:56.421Z,6.03
2018-04-29T08:39:23.824Z,6.30
2018-04-29T08:41:51.550Z,6.18
2018-04-29T08:44:18.887Z,5.87
2018-04-29T08:46:46.280Z,5.97
2018-04-29T08:49:13.691Z,5.40
2018-04-29T08:51:41.092Z,5.53
2018-04-29T08:54:08.525Z,5.80
2018-04-29T08:56:35.936Z,5.00
2018-04-29T08:59:03.334Z,4.80
2018-04-29T09:01:30.759Z,5.30
2018-04-29T09:03:58.242Z,4.93
2018-04-29T09:06:25.591Z,5.07
2018-04-29T09:08:52.987Z,4.83
2018-04-29T09:11:20.412Z,4.40
2018-04-29T09:13:47.814Z,4.70
2018-04-29T09:16:15.256Z,4.73
2018-04-29T09:18:42.652Z,4.50
2018-04-29T09:21:10.078Z,4.20
2018-04-29T09:23:37.531Z,5.27
2018-04-29T09:26:04.936Z,4.50
2018-04-29T09:28:32.342Z,4.50
2018-04-29T09:30:59.744Z,4.37
2018-04-29T09:33:27.159Z,4.47
2018-04-29T09:35:54.575Z,4.78
2018-04-29T09:38:21.991Z,3.95
2018-04-29T09:40:49.407Z,4.30
2018-04-29T09:43:16.816Z,4.53
2018-04-29T09:45:44.239Z,4.35
2018-04-29T09:48:11.632Z,4.37
2018-04-29T09:50:39.040Z,4.33
2018-04-29T09:53:06.498Z,4.33
2018-04-29T09:55:33.941Z,4.40
2018-04-29T09:58:01.356Z,4.60
2018-04-29T10:00:28.756Z,4.13
2018-04-29T10:03:01.758Z,4.75
2018-04-29T10:05:29.167Z,4.47
2018-04-29T10:07:56.568Z,4.25
2018-04-29T10:10:23.976Z,3.58
2018-04-29T10:12:51.380Z,3.03
2018-04-29T10:15:19.089Z,3.20
2018-04-29T10:17:46.487Z,3.58
2018-04-29T10:20:13.888Z,3.25
2018-04-29T10:22:41.547Z,3.28
2018-04-29T10:25:08.966Z,3.20
2018-04-29T10:27:36.462Z,3.42
2018-04-29T10:30:03.884Z,3.80
2018-04-29T10:32:31.304Z,4.20
2018-04-29T10:34:58.699Z,3.83
2018-04-29T10:37:26.124Z,3.50
2018-04-29T10:39:53.531Z,3.85
2018-04-29T10:42:20.931Z,3.70
2018-04-29T10:44:48.632Z,4.28
2018-04-29T10:47:16.036Z,4.40
2018-04-29T10:49:43.467Z,4.05
2018-04-29T10:52:11.148Z,4.05
2018-04-29T10:54:38.552Z,4.30
2018-04-29T10:57:05.950Z,3.67
2018-04-29T10:59:33.360Z,4.03
2018-04-29T11:02:00.779Z,4.55
2018-04-29T11:04:28.195Z,4.37
2018-04-29T11:06:55.615Z,3.62
2018-04-29T11:09:23.057Z,4.20
2018-04-29T11:11:50.851Z,4.50
2018-04-29T11:14:18.215Z,3.95
2018-04-29T11:16:45.632Z,4.78
2018-04-29T11:19:13.040Z,4.18
2018-04-29T11:21:40.446Z,4.25
2018-04-29T11:24:07.863Z,4.73
2018-04-29T11:26:35.274Z,4.18
2018-04-29T11:29:02.669Z,4.07
2018-04-29T11:31:30.088Z,4.97
2018-04-29T11:33:57.631Z,5.10
2018-04-29T11:36:25.796Z,5.12
2018-04-29T11:38:53.216Z,5.15
2018-04-29T11:41:20.636Z,4.13
2018-04-29T11:43:48.352Z,5.25
2018-04-29T11:46:15.764Z,4.00
2018-04-29T11:48:43.168Z,4.62
2018-04-29T11:51:10.584Z,4.18
2018-04-29T11:53:38.004Z,3.47
2018-04-29T11:56:05.421Z,4.30
2018-04-29T11:58:32.859Z,3.83
2018-04-29T12:01:00.265Z,3.65
2018-04-29T12:03:27.698Z,4.20
2018-04-29T12:05:55.362Z,4.45
2018-04-29T12:08:23.129Z,3.50
2018-04-29T12:10:50.668Z,3.87
2018-04-29T12:13:18.057Z,4.00
2018-04-29T12:15:45.452Z,3.55
2018-04-29T12:18:12.859Z,3.43
2018-04-29T12:20:40.264Z,3.78
2018-04-29T12:23:07.680Z,3.53
2018-04-29T12:25:35.369Z,3.33
2018-04-29T12:28:03.080Z,3.90
2018-04-29T12:30:30.515Z,3.83
2018-04-29T12:32:57.939Z,3.50
2018-04-29T12:35:25.697Z,3.07
2018-04-29T12:37:53.917Z,3.50
2018-04-29T12:40:21.350Z,4.10
2018-04-29T12:42:48.755Z,3.30
2018-04-29T12:45:17.660Z,3.25
2018-04-29T12:47:45.072Z,3.47
2018-04-29T12:50:12.484Z,3.45
2018-04-29T12:52:39.903Z,3.40
2018-04-29T12:55:08.144Z,3.55
2018-04-29T12:57:35.896Z,3.50
2018-04-29T13:00:03.319Z,3.85
2018-04-29T13:02:30.724Z,3.62
2018-04-29T13:04:58.128Z,3.70
2018-04-29T13:07:25.528Z,4.37
2018-04-29T13:09:52.948Z,3.60
2018-04-29T13:12:20.352Z,3.83
2018-04-29T13:14:47.765Z,4.50
2018-04-29T13:17:15.236Z,3.53
2018-04-29T13:19:42.687Z,4.03
2018-04-29T13:22:10.439Z,3.47
2018-04-29T13:24:38.104Z,3.33
2018-04-29T13:27:05.533Z,4.00
2018-04-29T13:29:32.938Z,4.05
2018-04-29T13:32:01.013Z,4.68
2018-04-29T13:34:28.467Z,3.70
2018-04-29T13:36:57.560Z,4.53
2018-04-29T13:39:24.994Z,4.10
2018-04-29T13:41:52.403Z,4.07
2018-04-29T13:44:19.849Z,3.78
2018-04-29T13:46:47.270Z,3.58
2018-04-29T13:49:14.698Z,8.82
2018-04-29T13:51:42.120Z,23.35
2018-04-29T13:54:09.549Z,9.15
2018-04-29T13:56:37.060Z,4.40
2018-04-29T13:59:04.381Z,4.35
2018-04-29T14:01:31.792Z,4.57
2018-04-29T14:03:59.646Z,5.50
2018-04-29T14:06:27.044Z,4.50
2018-04-29T14:08:54.448Z,5.68
2018-04-29T14:11:22.157Z,5.03
2018-04-29T14:13:49.564Z,4.85
2018-04-29T14:16:16.972Z,6.12
2018-04-29T14:18:44.368Z,4.65
2018-04-29T14:21:12.097Z,4.00
2018-04-29T14:23:40.406Z,5.07
2018-04-29T14:26:07.952Z,4.93
2018-04-29T14:28:35.404Z,4.82
2018-04-29T14:31:02.912Z,4.90
2018-04-29T14:33:30.331Z,4.87
2018-04-29T14:35:57.752Z,6.60
2018-04-29T14:38:25.172Z,5.22
2018-04-29T14:40:52.761Z,4.22
2018-04-29T14:43:20.464Z,4.28
2018-04-29T14:45:47.899Z,4.95
2018-04-29T14:48:15.316Z,3.90
2018-04-29T14:50:42.726Z,3.97
2018-04-29T14:53:10.143Z,4.20
2018-04-29T14:55:37.564Z,3.60
2018-04-29T14:58:05.305Z,4.72
2018-04-29T15:00:32.699Z,4.53
2018-04-29T15:03:00.101Z,4.25
2018-04-29T15:05:27.794Z,4.68
2018-04-29T15:07:55.292Z,4.68
2018-04-29T15:10:23.019Z,4.25
2018-04-29T15:12:50.455Z,4.25
2018-04-29T15:15:19.111Z,4.10
2018-04-29T15:17:46.524Z,4.60
2018-04-29T15:20:13.933Z,7.32
2018-04-29T15:22:41.348Z,4.90
2018-04-29T15:25:08.759Z,5.35
2018-04-29T15:27:36.175Z,5.53
2018-04-29T15:30:03.584Z,4.07
2018-04-29T15:32:30.993Z,4.12
2018-04-29T15:34:58.436Z,5.00
2018-04-29T15:37:25.841Z,4.57
2018-04-29T15:39:53.257Z,3.10
2018-04-29T15:42:20.705Z,4.27
2018-04-29T15:44:48.140Z,4.20
2018-04-29T15:47:15.559Z,3.83
2018-04-29T15:49:42.995Z,3.90
2018-04-29T15:52:10.422Z,4.03
2018-04-29T15:54:38.116Z,3.80
2018-04-29T15:57:05.536Z,3.70
2018-04-29T15:59:32.939Z,3.77
2018-04-29T16:02:00.361Z,3.43
2018-04-29T16:04:27.765Z,4.30
2018-04-29T16:06:55.169Z,4.10
2018-04-29T16:09:22.631Z,4.27
2018-04-29T16:11:50.087Z,4.13
2018-04-29T16:14:19.601Z,4.00
2018-04-29T16:16:48.860Z,5.17
2018-04-29T16:19:16.385Z,4.20
2018-04-29T16:21:45.852Z,4.10
2018-04-29T16:24:13.830Z,4.30
2018-04-29T16:26:41.301Z,4.13
2018-04-29T16:29:10.187Z,4.40
2018-04-29T16:31:38.038Z,4.10
2018-04-29T16:34:07.377Z,4.03
2018-04-29T16:36:35.360Z,4.07
2018-04-29T16:39:03.619Z,4.27
2018-04-29T16:41:31.255Z,4.80
2018-04-29T16:43:58.949Z,5.47
2018-04-29T16:46:26.930Z,4.37
2018-04-29T16:48:55.163Z,4.93
2018-04-29T16:51:22.975Z,4.33
2018-04-29T16:53:50.969Z,4.87
2018-04-29T16:56:18.380Z,4.50
2018-04-29T16:58:45.795Z,4.40
2018-04-29T17:01:13.638Z,4.60
2018-04-29T17:03:40.973Z,4.47
2018-04-29T17:06:08.390Z,3.97
2018-04-29T17:08:35.956Z,4.00
2018-04-29T17:11:03.353Z,3.97
2018-04-29T17:13:30.773Z,3.87
2018-04-29T17:15:58.707Z,4.03
2018-04-29T17:18:28.303Z,4.67
2018-04-29T17:20:56.241Z,4.27
2018-04-29T17:23:23.864Z,4.33
2018-04-29T17:25:51.505Z,4.37
2018-04-29T17:28:22.853Z,4.43
2018-04-29T17:30:50.209Z,4.20
2018-04-29T17:33:22.647Z,4.90
2018-04-29T17:35:50.347Z,4.43
2018-04-29T17:38:19.296Z,4.60
2018-04-29T17:40:47.880Z,4.80
2018-04-29T17:43:16.527Z,4.50
2018-04-29T17:45:44.555Z,4.10
2018-04-29T17:48:13.604Z,4.97
2018-04-29T17:50:41.225Z,4.40
2018-04-29T17:53:09.152Z,4.93
2018-04-29T17:55:37.010Z,5.10
2018-04-29T17:58:04.700Z,4.30
2018-04-29T18:00:32.112Z,5.10
2018-04-29T18:03:01.215Z,5.27
2018-04-29T18:05:28.729Z,4.93
2018-04-29T18:07:56.472Z,5.03
2018-04-29T18:10:24.801Z,5.03
2018-04-29T18:12:52.207Z,4.30
2018-04-29T18:15:20.254Z,4.73
2018-04-29T18:17:47.863Z,4.67
2018-04-29T18:20:15.438Z,5.37
2018-04-29T18:22:44.190Z,4.60
2018-04-29T18:25:11.896Z,5.33
2018-04-29T18:27:41.260Z,6.03
2018-04-29T18:30:08.763Z,5.20
2018-04-29T18:32:37.688Z,5.30
2018-04-29T18:35:05.873Z,4.93
2018-04-29T18:37:33.946Z,5.13
2018-04-29T18:40:03.163Z,5.57
2018-04-29T18:42:31.091Z,7.60
2018-04-29T18:44:58.752Z,6.13
2018-04-29T18:47:27.260Z,6.70
2018-04-29T18:49:55.266Z,6.00
2018-04-29T18:52:22.753Z,5.63
2018-04-29T18:54:50.297Z,6.37
2018-04-29T18:57:18.699Z,6.57
2018-04-29T18:59:46.236Z,7.03
2018-04-29T19:02:14.571Z,6.80
2018-04-29T19:04:42.894Z,5.37
2018-04-29T19:07:10.315Z,6.30
2018-04-29T19:09:37.745Z,5.37
2018-04-29T19:12:05.139Z,5.50
2018-04-29T19:14:32.548Z,5.93
2018-04-29T19:16:59.994Z,5.40
2018-04-29T19:19:27.440Z,5.53
2018-04-29T19:21:55.133Z,5.60
2018-04-29T19:24:23.250Z,5.80
2018-04-29T19:26:51.983Z,6.60
2018-04-29T19:29:20.363Z,6.20
2018-04-29T19:31:48.719Z,6.87
2018-04-29T19:34:16.428Z,5.67
2018-04-29T19:36:44.099Z,6.10
2018-04-29T19:39:13.058Z,6.07
2018-04-29T19:41:40.478Z,5.40
2018-04-29T19:44:07.880Z,6.10
2018-04-29T19:46:35.436Z,5.47
2018-04-29T19:49:02.873Z,5.67
2018-04-29T19:51:30.277Z,5.47
2018-04-29T19:53:57.688Z,6.37
2018-04-29T19:56:26.088Z,5.50
2018-04-29T19:58:53.492Z,6.13
2018-04-29T20:01:20.912Z,5.37
2018-04-29T20:03:48.328Z,5.27
2018-04-29T20:06:15.743Z,5.20
2018-04-29T20:08:43.169Z,5.77
2018-04-29T20:11:10.568Z,5.50
2018-04-29T20:13:37.980Z,6.00
2018-04-29T20:16:05.548Z,5.50
2018-04-29T20:18:33.134Z,6.17
2018-04-29T20:21:00.702Z,5.83
2018-04-29T20:23:28.121Z,5.80
2018-04-29T20:25:55.521Z,6.70
2018-04-29T20:28:22.929Z,7.30
2018-04-29T20:30:50.354Z,7.40
2018-04-29T20:33:17.743Z,8.07
2018-04-29T20:35:45.191Z,7.13
2018-04-29T20:38:12.596Z,6.77
2018-04-29T20:40:39.995Z,7.03
2018-04-29T20:43:07.411Z,6.27
2018-04-29T20:45:34.826Z,6.20
2018-04-29T20:48:02.256Z,6.67
2018-04-29T20:50:29.849Z,6.73
2018-04-29T20:52:57.244Z,6.07
2018-04-29T20:55:24.670Z,7.37
2018-04-29T20:57:52.079Z,7.10
2018-04-29T21:00:19.492Z,6.80
2018-04-29T21:02:47.388Z,8.17
2018-04-29T21:05:14.823Z,6.70
2018-04-29T21:07:42.303Z,7.10
2018-04-29T21:10:09.824Z,6.30
2018-04-29T21:12:37.261Z,8.33
2018-04-29T21:15:04.684Z,8.03
2018-04-29T21:17:32.158Z,8.17
2018-04-29T21:19:59.629Z,7.87
2018-04-29T21:22:27.132Z,11.00
2018-04-29T21:24:54.465Z,8.70
2018-04-29T21:27:21.882Z,7.83
2018-04-29T21:29:49.291Z,7.97
2018-04-29T21:32:16.716Z,8.37
2018-04-29T21:34:44.132Z,7.63
2018-04-29T21:37:11.582Z,7.80
2018-04-29T21:39:39.003Z,8.07
2018-04-29T21:42:06.417Z,7.97
2018-04-29T21:44:33.827Z,8.63
2018-04-29T21:47:01.265Z,8.40
2018-04-29T21:49:28.685Z,8.47
2018-04-29T21:51:56.096Z,8.33
2018-04-29T21:54:23.528Z,7.17
2018-04-29T21:56:50.937Z,7.63
2018-04-29T21:59:18.369Z,7.47
2018-04-29T22:01:45.772Z,7.67
2018-04-29T22:04:13.236Z,8.40
2018-04-29T22:06:40.612Z,9.40
2018-04-29T22:09:08.016Z,8.77
2018-04-29T22:11:35.456Z,8.40
2018-04-29T22:14:02.876Z,7.77
2018-04-29T22:16:30.280Z,7.50
2018-04-29T22:18:57.677Z,7.93
2018-04-29T22:21:25.090Z,8.03
2018-04-29T22:23:52.510Z,8.70
2018-04-29T22:26:19.972Z,8.57
2018-04-29T22:28:47.393Z,8.37
2018-04-29T22:31:14.812Z,8.13
2018-04-29T22:33:42.213Z,7.80
2018-04-29T22:36:09.628Z,7.13
2018-04-29T22:38:37.036Z,6.80
2018-04-29T22:41:04.460Z,6.23
2018-04-29T22:43:31.875Z,6.50
2018-04-29T22:45:59.293Z,8.13
2018-04-29T22:48:26.716Z,8.17
2018-04-29T22:50:54.124Z,7.47
2018-04-29T22:53:21.544Z,7.73
2018-04-29T22:55:48.953Z,7.13
2018-04-29T22:58:16.369Z,7.30
2018-04-29T23:00:43.768Z,6.73
2018-04-29T23:03:11.189Z,6.40
2018-04-29T23:05:38.936Z,6.20
2018-04-29T23:08:06.341Z,6.60
2018-04-29T23:10:33.761Z,7.07
2018-04-29T23:13:01.176Z,6.27
2018-04-29T23:15:28.576Z,6.73
2018-04-29T23:17:56.234Z,6.53
2018-04-29T23:20:23.640Z,7.20
2018-04-29T23:22:51.050Z,6.70
2018-04-29T23:25:18.789Z,5.97
2018-04-29T23:27:46.200Z,7.33
2018-04-29T23:30:13.603Z,7.23
2018-04-29T23:32:41.020Z,7.37
2018-04-29T23:35:08.432Z,8.23
2018-04-29T23:37:35.853Z,8.60
2018-04-29T23:40:03.284Z,7.23
2018-04-29T23:42:30.688Z,8.07
2018-04-29T23:44:58.109Z,7.57
2018-04-29T23:47:25.579Z,7.80
2018-04-29T23:49:52.967Z,8.17
2018-04-29T23:52:20.384Z,7.50
2018-04-29T23:54:47.791Z,8.33
2018-04-29T23:57:15.225Z,7.77
2018-04-29T23:59:42.624Z,8.00
